Time;durP1;ratioP1;P1;durP2;ratioP2;P2;SDS_P1;SDS_P2;PMS_P1;PMS_P2;Temp;Humidity;BMP_temperature;BMP_pressure;BME280_temperature;BME280_humidity;BME280_pressure;Samples;Min_cycle;Max_cycle;Signal;HPM_P1;HPM_P2
2022/07/16 00:01:39;;;;;;;3.20;2.90;;;;;;;;;;2094048;28;20168;-56
2022/07/16 00:02:40;;;;;;;3.38;3.17;;;;;;;;;;2086146;28;20164;-55
2022/07/16 00:03:40;;;;;;;3.25;2.63;;;;;;;;;;2084535;28;20220;-58
2022/07/16 00:04:41;;;;;;;6.40;3.17;;;;;;;;;;2093303;28;20614;-55
2022/07/16 00:05:41;;;;;;;3.08;2.70;;;;;;;;;;2094190;28;20203;-57
2022/07/16 00:06:43;;;;;;;4.05;3.08;;;;;;;;;;2093711;28;20175;-55
2022/07/16 00:07:43;;;;;;;4.75;2.83;;;;;;;;;;2094029;28;20178;-54
2022/07/16 00:08:44;;;;;;;3.47;2.78;;;;;;;;;;2094010;28;20187;-56
2022/07/16 00:09:44;;;;;;;3.40;3.10;;;;;;;;;;2093012;28;20160;-55
2022/07/16 00:10:44;;;;;;;3.83;2.55;;;;;;;;;;2091446;28;20538;-53
2022/07/16 00:11:45;;;;;;;10.32;2.85;;;;;;;;;;2091509;28;20172;-52
2022/07/16 00:12:45;;;;;;;3.17;2.90;;;;;;;;;;2091018;28;20624;-55
2022/07/16 00:13:46;;;;;;;6.25;2.88;;;;;;;;;;2091364;28;20211;-55
2022/07/16 00:14:46;;;;;;;3.08;2.80;;;;;;;;;;2081522;28;20168;-55
2022/07/16 00:15:46;;;;;;;2.78;2.58;;;;;;;;;;2082653;28;20179;-52
2022/07/16 00:16:47;;;;;;;3.58;2.88;;;;;;;;;;2082489;28;20168;-51
2022/07/16 00:17:47;;;;;;;3.65;2.80;;;;;;;;;;2074101;28;20204;-56
2022/07/16 00:20:07;;;;;;;3.50;3.20;;;;;;;;;;2091442;28;20231;-52
2022/07/16 00:21:07;;;;;;;3.63;3.33;;;;;;;;;;2082400;28;20196;-55
2022/07/16 00:22:08;;;;;;;4.75;2.60;;;;;;;;;;2082297;28;20679;-53
2022/07/16 00:23:08;;;;;;;3.35;2.53;;;;;;;;;;2091053;28;20721;-55
2022/07/16 00:24:09;;;;;;;5.35;2.80;;;;;;;;;;2090407;28;20203;-52
2022/07/16 00:25:09;;;;;;;3.10;2.80;;;;;;;;;;2082235;28;20168;-54
2022/07/16 00:26:09;;;;;;;3.38;2.70;;;;;;;;;;2082418;28;20181;-54
2022/07/16 00:27:10;;;;;;;3.20;2.90;;;;;;;;;;2082454;28;20157;-51
2022/07/16 00:28:10;;;;;;;4.68;3.00;;;;;;;;;;2078397;28;20195;-54
2022/07/16 00:29:11;;;;;;;4.05;3.03;;;;;;;;;;2082969;28;20165;-50
2022/07/16 00:30:11;;;;;;;2.72;2.58;;;;;;;;;;2083717;28;20168;-57
2022/07/16 00:31:12;;;;;;;3.90;2.70;;;;;;;;;;2082831;28;20254;-59
2022/07/16 00:32:12;;;;;;;3.28;3.08;;;;;;;;;;2083536;28;20251;-55
2022/07/16 00:33:12;;;;;;;3.25;2.70;;;;;;;;;;2087133;28;20252;-50
2022/07/16 00:34:14;;;;;;;5.47;2.78;;;;;;;;;;2081758;28;20180;-52
2022/07/16 00:35:14;;;;;;;3.55;3.13;;;;;;;;;;2083129;28;20187;-54
2022/07/16 00:36:14;;;;;;;3.40;2.88;;;;;;;;;;2091931;28;20171;-52
2022/07/16 00:37:15;;;;;;;3.17;2.70;;;;;;;;;;2091432;28;20268;-54
2022/07/16 00:38:15;;;;;;;3.55;2.55;;;;;;;;;;2091729;28;20259;-56
2022/07/16 00:39:16;;;;;;;3.28;2.72;;;;;;;;;;2091971;28;20179;-53
2022/07/16 00:40:16;;;;;;;3.50;2.88;;;;;;;;;;2083139;28;20177;-51
2022/07/16 00:41:16;;;;;;;3.22;3.00;;;;;;;;;;2082963;28;20235;-56
2022/07/16 00:42:17;;;;;;;3.00;2.65;;;;;;;;;;2091429;28;20187;-54
2022/07/16 00:43:17;;;;;;;2.65;2.45;;;;;;;;;;2091537;28;20180;-51
2022/07/16 00:44:18;;;;;;;3.50;2.85;;;;;;;;;;2090564;28;20715;-53
2022/07/16 00:45:19;;;;;;;3.00;2.78;;;;;;;;;;2082551;28;20184;-52
2022/07/16 00:46:19;;;;;;;4.07;3.13;;;;;;;;;;2082963;28;20168;-55
2022/07/16 00:47:19;;;;;;;4.03;3.08;;;;;;;;;;2091706;28;20806;-52
2022/07/16 00:48:20;;;;;;;3.85;3.13;;;;;;;;;;2082193;28;20168;-53
2022/07/16 00:49:21;;;;;;;4.57;2.88;;;;;;;;;;2082839;28;20638;-54
2022/07/16 00:50:21;;;;;;;3.70;2.83;;;;;;;;;;2090902;28;20222;-54
2022/07/16 00:51:22;;;;;;;3.90;2.88;;;;;;;;;;2091184;28;20688;-51
2022/07/16 00:52:23;;;;;;;2.80;2.60;;;;;;;;;;2091142;28;20532;-55
2022/07/16 00:53:24;;;;;;;4.57;3.13;;;;;;;;;;2091143;28;20179;-52
2022/07/16 00:54:24;;;;;;;3.20;2.90;;;;;;;;;;2090106;28;20181;-51
2022/07/16 00:55:24;;;;;;;2.80;2.70;;;;;;;;;;2091213;28;20179;-51
2022/07/16 00:56:25;;;;;;;3.42;3.13;;;;;;;;;;2081915;28;20203;-57
2022/07/16 00:57:25;;;;;;;6.78;2.80;;;;;;;;;;2082452;28;20259;-54
2022/07/16 00:58:25;;;;;;;2.72;2.45;;;;;;;;;;2081782;28;20192;-54
2022/07/16 00:59:26;;;;;;;3.33;2.72;;;;;;;;;;2082383;28;20180;-54
2022/07/16 01:00:26;;;;;;;3.28;2.55;;;;;;;;;;2091124;28;20218;-54
2022/07/16 01:01:27;;;;;;;5.75;3.03;;;;;;;;;;2091277;28;20262;-53
2022/07/16 01:02:27;;;;;;;2.85;2.65;;;;;;;;;;2082231;28;20191;-57
2022/07/16 01:03:28;;;;;;;2.65;2.47;;;;;;;;;;2082095;28;20222;-53
2022/07/16 01:04:28;;;;;;;3.17;2.97;;;;;;;;;;2073162;28;20615;-54
2022/07/16 01:05:28;;;;;;;2.85;2.65;;;;;;;;;;2082697;28;20176;-53
2022/07/16 01:06:29;;;;;;;3.13;2.83;;;;;;;;;;2083173;28;20192;-54
2022/07/16 01:07:30;;;;;;;3.05;2.83;;;;;;;;;;2084149;28;20180;-56
2022/07/16 01:08:32;;;;;;;5.47;2.60;;;;;;;;;;2092344;28;20186;-55
2022/07/16 01:09:33;;;;;;;4.93;2.75;;;;;;;;;;2092766;28;20171;-56
2022/07/16 01:10:33;;;;;;;2.85;2.70;;;;;;;;;;2092877;28;20184;-52
2022/07/16 01:11:34;;;;;;;2.80;2.60;;;;;;;;;;2091540;28;20235;-51
2022/07/16 01:12:34;;;;;;;5.00;2.60;;;;;;;;;;2082706;28;20164;-51
2022/07/16 01:13:35;;;;;;;2.78;2.58;;;;;;;;;;2081865;28;20160;-54
2022/07/16 01:14:35;;;;;;;2.88;2.67;;;;;;;;;;2081054;28;20230;-55
2022/07/16 01:15:36;;;;;;;3.05;2.85;;;;;;;;;;2082009;28;20168;-54
2022/07/16 01:16:36;;;;;;;2.80;2.60;;;;;;;;;;2081805;28;20176;-53
2022/07/16 01:17:37;;;;;;;5.60;3.15;;;;;;;;;;2081888;28;20559;-54
2022/07/16 01:18:38;;;;;;;4.75;2.63;;;;;;;;;;2090764;28;20191;-51
2022/07/16 01:19:38;;;;;;;4.05;2.80;;;;;;;;;;2090149;28;20172;-54
2022/07/16 01:20:39;;;;;;;2.80;2.60;;;;;;;;;;2090577;28;20214;-57
2022/07/16 01:21:39;;;;;;;2.70;2.30;;;;;;;;;;2090499;28;20179;-55
2022/07/16 01:22:40;;;;;;;3.15;2.85;;;;;;;;;;2090864;28;20251;-51
2022/07/16 01:23:42;;;;;;;2.78;2.45;;;;;;;;;;2090580;28;20186;-55
2022/07/16 01:24:42;;;;;;;2.55;2.33;;;;;;;;;;2090075;28;20176;-53
2022/07/16 01:25:43;;;;;;;3.00;2.47;;;;;;;;;;2090571;28;20168;-53
2022/07/16 01:26:43;;;;;;;2.67;2.47;;;;;;;;;;2090820;28;20187;-54
2022/07/16 01:27:43;;;;;;;3.33;2.80;;;;;;;;;;2073663;28;20169;-54
2022/07/16 01:28:44;;;;;;;2.75;2.47;;;;;;;;;;2073901;28;20161;-49
2022/07/16 01:29:44;;;;;;;2.88;2.55;;;;;;;;;;2090615;28;20696;-52
2022/07/16 01:30:45;;;;;;;3.70;2.70;;;;;;;;;;2091306;28;20194;-52
2022/07/16 01:31:45;;;;;;;4.82;2.50;;;;;;;;;;2074173;28;20193;-53
2022/07/16 01:32:45;;;;;;;2.63;2.42;;;;;;;;;;2074467;28;20359;-53
2022/07/16 01:34:24;;;;;;;4.38;3.10;;;;;;;;;;2081514;28;20273;-54
2022/07/16 01:35:06;;;;;;;4.20;2.30;;;;;;;;;;2090098;28;20558;-52
2022/07/16 01:36:07;;;;;;;2.50;2.28;;;;;;;;;;2090419;28;20182;-53
2022/07/16 01:37:08;;;;;;;2.65;2.45;;;;;;;;;;2085549;28;20184;-54
2022/07/16 01:38:10;;;;;;;2.85;2.65;;;;;;;;;;2086236;28;20174;-52
2022/07/16 01:39:10;;;;;;;2.95;2.75;;;;;;;;;;2082045;28;20184;-54
2022/07/16 01:40:11;;;;;;;2.63;2.42;;;;;;;;;;2090594;28;20176;-55
2022/07/16 01:41:12;;;;;;;4.38;2.58;;;;;;;;;;2090256;28;20214;-54
2022/07/16 01:42:12;;;;;;;2.92;2.35;;;;;;;;;;2090420;28;20243;-51
2022/07/16 01:43:13;;;;;;;2.83;2.63;;;;;;;;;;2079847;28;20192;-52
2022/07/16 01:44:14;;;;;;;2.65;2.35;;;;;;;;;;2080911;28;20204;-53
2022/07/16 01:45:14;;;;;;;3.17;2.30;;;;;;;;;;2090726;28;20160;-55
2022/07/16 01:46:14;;;;;;;3.47;2.45;;;;;;;;;;2090402;28;20178;-53
2022/07/16 01:47:15;;;;;;;2.55;2.45;;;;;;;;;;2090624;28;20168;-52
2022/07/16 01:48:16;;;;;;;3.08;2.78;;;;;;;;;;2090322;28;20171;-54
2022/07/16 01:49:16;;;;;;;2.70;2.50;;;;;;;;;;2091193;28;20621;-57
2022/07/16 01:50:16;;;;;;;3.30;2.28;;;;;;;;;;2090504;28;20198;-54
2022/07/16 01:51:17;;;;;;;2.75;2.30;;;;;;;;;;2090549;28;20213;-52
2022/07/16 01:52:19;;;;;;;3.03;2.45;;;;;;;;;;2090654;28;20164;-52
2022/07/16 01:53:20;;;;;;;4.13;3.00;;;;;;;;;;2090802;28;20210;-53
2022/07/16 01:54:20;;;;;;;3.65;2.40;;;;;;;;;;2080726;28;20187;-54
2022/07/16 01:55:20;;;;;;;2.47;2.28;;;;;;;;;;2081801;28;20230;-51
2022/07/16 01:56:21;;;;;;;2.95;2.70;;;;;;;;;;2090593;28;20225;-52
2022/07/16 01:57:21;;;;;;;3.25;2.95;;;;;;;;;;2090494;28;20175;-51
2022/07/16 01:58:22;;;;;;;2.88;2.65;;;;;;;;;;2082022;28;20183;-56
2022/07/16 01:59:22;;;;;;;2.35;2.25;;;;;;;;;;2081922;28;20175;-51
2022/07/16 02:00:23;;;;;;;2.67;2.47;;;;;;;;;;2090729;28;20191;-55
2022/07/16 02:01:23;;;;;;;2.90;2.63;;;;;;;;;;2090781;28;20191;-52
2022/07/16 02:02:24;;;;;;;2.53;2.42;;;;;;;;;;2091189;28;20258;-52
2022/07/16 02:03:24;;;;;;;4.25;2.90;;;;;;;;;;2091055;28;20183;-55
2022/07/16 02:04:24;;;;;;;2.67;2.47;;;;;;;;;;2089421;28;20198;-52
2022/07/16 02:05:25;;;;;;;3.35;2.50;;;;;;;;;;2090360;28;20171;-53
2022/07/16 02:06:26;;;;;;;3.03;2.30;;;;;;;;;;2090169;28;20164;-54
2022/07/16 02:07:26;;;;;;;3.03;2.70;;;;;;;;;;2081353;28;20168;-54
2022/07/16 02:08:26;;;;;;;2.53;2.22;;;;;;;;;;2081516;28;20168;-52
2022/07/16 02:09:27;;;;;;;2.58;2.35;;;;;;;;;;2090432;28;20184;-50
2022/07/16 02:10:27;;;;;;;3.67;2.75;;;;;;;;;;2090439;28;20640;-53
2022/07/16 02:11:27;;;;;;;3.30;2.75;;;;;;;;;;2090406;28;20179;-55
2022/07/16 02:12:27;;;;;;;2.33;2.08;;;;;;;;;;2090557;28;20182;-53
2022/07/16 02:13:28;;;;;;;2.50;2.30;;;;;;;;;;2081485;28;20164;-55
2022/07/16 02:14:28;;;;;;;2.70;2.50;;;;;;;;;;2080551;28;20567;-53
2022/07/16 02:15:29;;;;;;;3.75;2.95;;;;;;;;;;2089894;28;20267;-52
2022/07/16 02:16:29;;;;;;;4.10;3.00;;;;;;;;;;2090250;28;20647;-56
2022/07/16 02:17:29;;;;;;;2.97;2.78;;;;;;;;;;2089888;28;20271;-51
2022/07/16 02:18:30;;;;;;;3.40;3.10;;;;;;;;;;2090171;28;20522;-55
2022/07/16 02:19:30;;;;;;;4.13;3.13;;;;;;;;;;2081436;28;20264;-52
2022/07/16 02:20:31;;;;;;;4.68;3.60;;;;;;;;;;2081676;28;20169;-55
2022/07/16 02:21:31;;;;;;;3.85;3.42;;;;;;;;;;2090298;28;20187;-53
2022/07/16 02:22:32;;;;;;;9.77;4.18;;;;;;;;;;2081413;28;20211;-54
2022/07/16 02:23:32;;;;;;;5.50;3.55;;;;;;;;;;2081441;28;20165;-53
2022/07/16 02:24:33;;;;;;;4.25;3.85;;;;;;;;;;2089405;28;20221;-53
2022/07/16 02:25:33;;;;;;;4.63;4.10;;;;;;;;;;2090384;28;20237;-53
2022/07/16 02:26:33;;;;;;;4.80;3.60;;;;;;;;;;2090287;28;20176;-52
2022/07/16 02:27:34;;;;;;;6.72;4.05;;;;;;;;;;2090051;28;20176;-51
2022/07/16 02:28:34;;;;;;;3.47;3.17;;;;;;;;;;2090262;28;20167;-52
2022/07/16 02:29:34;;;;;;;4.32;3.25;;;;;;;;;;2081649;28;20604;-56
2022/07/16 02:30:36;;;;;;;3.20;2.90;;;;;;;;;;2081332;28;20168;-54
2022/07/16 02:31:36;;;;;;;2.95;2.75;;;;;;;;;;2090652;28;20156;-55
2022/07/16 02:32:36;;;;;;;4.18;3.10;;;;;;;;;;2090334;28;20171;-52
2022/07/16 02:33:36;;;;;;;3.17;2.88;;;;;;;;;;2090325;28;20183;-54
2022/07/16 02:34:37;;;;;;;3.10;2.60;;;;;;;;;;2089590;28;20167;-53
2022/07/16 02:35:38;;;;;;;2.70;2.50;;;;;;;;;;2090709;28;20156;-51
2022/07/16 02:36:38;;;;;;;2.63;2.42;;;;;;;;;;2090541;28;20263;-51
2022/07/16 02:37:38;;;;;;;3.17;2.28;;;;;;;;;;2090401;28;20168;-55
2022/07/16 02:38:39;;;;;;;2.47;2.28;;;;;;;;;;2081457;28;20186;-56
2022/07/16 02:39:39;;;;;;;2.47;2.13;;;;;;;;;;2081560;28;20194;-52
2022/07/16 02:40:42;;;;;;;2.17;1.95;;;;;;;;;;2090424;28;20194;-55
2022/07/16 02:41:42;;;;;;;4.75;2.10;;;;;;;;;;2090435;28;20612;-56
2022/07/16 02:42:43;;;;;;;2.30;2.20;;;;;;;;;;2090405;28;20176;-53
2022/07/16 02:43:43;;;;;;;2.00;1.90;;;;;;;;;;2090336;28;20203;-55
2022/07/16 02:44:43;;;;;;;2.35;2.25;;;;;;;;;;2089253;28;20226;-58
2022/07/16 02:45:44;;;;;;;2.63;2.10;;;;;;;;;;2090541;28;20209;-51
2022/07/16 02:46:44;;;;;;;1.88;1.77;;;;;;;;;;2090287;28;20255;-53
2022/07/16 02:47:45;;;;;;;2.13;1.90;;;;;;;;;;2090151;28;20808;-51
2022/07/16 02:48:45;;;;;;;3.33;2.22;;;;;;;;;;2090093;28;20183;-53
2022/07/16 02:49:45;;;;;;;2.03;1.92;;;;;;;;;;2081134;28;20180;-54
2022/07/16 02:50:46;;;;;;;2.35;2.20;;;;;;;;;;2081445;28;20179;-54
2022/07/16 02:51:46;;;;;;;2.00;1.90;;;;;;;;;;2081446;28;20648;-55
2022/07/16 02:52:46;;;;;;;2.25;2.05;;;;;;;;;;2081425;28;20175;-53
2022/07/16 02:53:47;;;;;;;3.28;1.80;;;;;;;;;;2090390;28;20591;-54
2022/07/16 02:54:47;;;;;;;2.75;2.10;;;;;;;;;;2089146;28;20167;-55
2022/07/16 02:55:47;;;;;;;2.50;2.30;;;;;;;;;;2090450;28;20172;-54
2022/07/16 02:56:48;;;;;;;2.22;1.92;;;;;;;;;;2081279;28;20181;-51
2022/07/16 02:57:48;;;;;;;2.53;2.35;;;;;;;;;;2081050;28;20243;-56
2022/07/16 02:58:48;;;;;;;2.05;1.92;;;;;;;;;;2090000;28;20208;-54
2022/07/16 02:59:49;;;;;;;3.33;2.30;;;;;;;;;;2090007;28;20177;-55
2022/07/16 03:00:49;;;;;;;2.42;1.98;;;;;;;;;;2090245;28;20179;-54
2022/07/16 03:01:49;;;;;;;2.03;1.88;;;;;;;;;;2090106;28;20177;-54
2022/07/16 03:02:50;;;;;;;2.20;2.10;;;;;;;;;;2089951;28;20168;-58
2022/07/16 03:03:51;;;;;;;2.30;2.03;;;;;;;;;;2089778;28;20717;-53
2022/07/16 03:04:51;;;;;;;2.85;2.00;;;;;;;;;;2089449;28;20608;-52
2022/07/16 03:05:52;;;;;;;2.67;2.28;;;;;;;;;;2090020;28;20163;-52
2022/07/16 03:06:52;;;;;;;2.10;1.90;;;;;;;;;;2090025;28;20624;-51
2022/07/16 03:07:52;;;;;;;1.98;1.90;;;;;;;;;;2089324;28;20667;-58
2022/07/16 03:08:53;;;;;;;2.47;2.28;;;;;;;;;;2089871;28;20755;-53
2022/07/16 03:09:53;;;;;;;4.35;2.40;;;;;;;;;;2089965;28;20656;-53
2022/07/16 03:10:53;;;;;;;2.40;2.05;;;;;;;;;;2089893;28;20197;-55
2022/07/16 03:11:54;;;;;;;3.42;1.83;;;;;;;;;;2090044;28;20540;-52
2022/07/16 03:12:54;;;;;;;2.78;2.20;;;;;;;;;;2090080;28;20160;-56
2022/07/16 03:13:54;;;;;;;2.50;2.30;;;;;;;;;;2089249;28;20575;-55
2022/07/16 03:14:55;;;;;;;2.55;2.38;;;;;;;;;;2089551;28;20266;-53
2022/07/16 03:15:56;;;;;;;5.80;2.90;;;;;;;;;;2089815;28;20202;-54
2022/07/16 03:16:56;;;;;;;3.08;2.20;;;;;;;;;;2081146;28;20179;-53
2022/07/16 03:17:56;;;;;;;2.10;1.90;;;;;;;;;;2080109;28;20830;-56
2022/07/16 03:18:57;;;;;;;2.30;2.10;;;;;;;;;;2089951;28;20179;-53
2022/07/16 03:19:57;;;;;;;9.10;2.65;;;;;;;;;;2081041;28;20330;-52
2022/07/16 03:20:57;;;;;;;2.22;2.08;;;;;;;;;;2081215;28;20192;-56
2022/07/16 03:21:58;;;;;;;2.47;2.08;;;;;;;;;;2089921;28;20218;-55
2022/07/16 03:22:58;;;;;;;2.88;2.10;;;;;;;;;;2089975;28;20171;-55
2022/07/16 03:23:58;;;;;;;2.72;2.53;;;;;;;;;;2089109;28;20199;-50
2022/07/16 03:24:59;;;;;;;2.00;1.90;;;;;;;;;;2089552;28;20327;-51
2022/07/16 03:25:59;;;;;;;2.25;2.15;;;;;;;;;;2089687;28;20193;-55
2022/07/16 03:26:59;;;;;;;2.63;2.17;;;;;;;;;;2089932;28;20682;-52
2022/07/16 03:27:59;;;;;;;2.42;2.22;;;;;;;;;;2089545;28;20168;-53
2022/07/16 03:29:00;;;;;;;2.40;2.20;;;;;;;;;;2081221;28;20177;-55
2022/07/16 03:30:00;;;;;;;2.45;2.05;;;;;;;;;;2081052;28;20215;-55
2022/07/16 03:31:00;;;;;;;1.98;1.77;;;;;;;;;;2090008;28;20267;-56
2022/07/16 03:32:01;;;;;;;3.88;2.40;;;;;;;;;;2089988;28;20199;-54
2022/07/16 03:33:02;;;;;;;2.40;2.20;;;;;;;;;;2089596;28;20187;-54
2022/07/16 03:34:02;;;;;;;2.85;2.15;;;;;;;;;;2088826;28;20170;-59
2022/07/16 03:35:03;;;;;;;4.32;2.20;;;;;;;;;;2089461;28;20573;-55
2022/07/16 03:36:04;;;;;;;4.13;2.35;;;;;;;;;;2090076;28;20163;-56
2022/07/16 03:37:04;;;;;;;2.50;2.17;;;;;;;;;;2086413;28;20730;-56
2022/07/16 03:39:23;;;;;;;2.78;2.58;;;;;;;;;;2090045;28;20224;-52
2022/07/16 03:40:24;;;;;;;2.70;2.50;;;;;;;;;;2089878;28;20184;-54
2022/07/16 03:41:24;;;;;;;2.90;2.05;;;;;;;;;;2098951;22;20196;-55
2022/07/16 03:42:25;;;;;;;2.50;2.30;;;;;;;;;;2071565;28;20259;-57
2022/07/16 03:43:27;;;;;;;2.35;2.13;;;;;;;;;;2070059;28;20208;-58
2022/07/16 03:44:27;;;;;;;3.60;2.22;;;;;;;;;;2079651;28;20744;-55
2022/07/16 03:45:28;;;;;;;3.10;2.55;;;;;;;;;;2072600;28;20187;-54
2022/07/16 03:46:29;;;;;;;2.55;2.20;;;;;;;;;;2072797;28;20195;-53
2022/07/16 03:47:29;;;;;;;2.20;2.00;;;;;;;;;;2081459;28;20176;-59
2022/07/16 03:48:29;;;;;;;2.80;2.30;;;;;;;;;;2079047;28;20669;-52
2022/07/16 03:49:30;;;;;;;2.50;2.30;;;;;;;;;;2079621;28;20172;-57
2022/07/16 03:50:30;;;;;;;3.28;2.55;;;;;;;;;;2080717;28;20177;-56
2022/07/16 03:51:31;;;;;;;2.65;1.92;;;;;;;;;;2072244;28;20592;-52
2022/07/16 03:52:31;;;;;;;3.00;2.53;;;;;;;;;;2072643;28;20634;-59
2022/07/16 03:53:34;;;;;;;2.60;2.40;;;;;;;;;;2072324;28;20165;-54
2022/07/16 03:54:35;;;;;;;2.17;1.98;;;;;;;;;;2072270;28;20254;-57
2022/07/16 03:55:35;;;;;;;2.65;2.40;;;;;;;;;;2072984;28;20268;-51
2022/07/16 03:56:36;;;;;;;2.50;2.30;;;;;;;;;;2072933;28;20172;-54
2022/07/16 03:57:36;;;;;;;3.78;2.10;;;;;;;;;;2081540;28;20210;-55
2022/07/16 03:58:37;;;;;;;2.70;2.50;;;;;;;;;;2081227;28;20168;-57
2022/07/16 03:59:37;;;;;;;2.88;2.17;;;;;;;;;;2081329;28;20175;-54
2022/07/16 04:00:38;;;;;;;4.53;2.70;;;;;;;;;;2081701;28;20160;-54
2022/07/16 04:01:38;;;;;;;5.13;2.58;;;;;;;;;;2081419;28;20185;-56
2022/07/16 04:02:39;;;;;;;2.92;2.60;;;;;;;;;;2081498;28;20234;-59
2022/07/16 04:03:39;;;;;;;3.25;2.60;;;;;;;;;;2081392;28;20195;-54
2022/07/16 04:04:40;;;;;;;2.72;2.50;;;;;;;;;;2080543;28;20168;-56
2022/07/16 04:05:40;;;;;;;2.72;2.53;;;;;;;;;;2064720;28;20177;-56
2022/07/16 04:06:41;;;;;;;2.80;2.58;;;;;;;;;;2056781;28;20174;-57
2022/07/16 04:07:41;;;;;;;4.65;3.28;;;;;;;;;;2064860;28;20243;-55
2022/07/16 04:08:41;;;;;;;2.95;2.75;;;;;;;;;;2072668;28;20165;-53
2022/07/16 04:09:42;;;;;;;4.63;3.65;;;;;;;;;;2082022;28;20176;-53
2022/07/16 04:10:42;;;;;;;5.20;3.65;;;;;;;;;;2081628;28;20172;-51
2022/07/16 04:11:43;;;;;;;4.00;3.65;;;;;;;;;;2073043;28;20325;-57
2022/07/16 04:12:43;;;;;;;3.83;3.53;;;;;;;;;;2072799;28;20638;-51
2022/07/16 04:13:44;;;;;;;3.72;3.33;;;;;;;;;;2072692;28;20165;-50
2022/07/16 04:14:44;;;;;;;3.60;3.40;;;;;;;;;;2064365;28;20193;-52
2022/07/16 04:15:44;;;;;;;3.58;3.30;;;;;;;;;;2073891;28;20156;-57
2022/07/16 04:16:45;;;;;;;5.75;3.78;;;;;;;;;;2081886;28;20565;-58
2022/07/16 04:17:45;;;;;;;3.67;3.38;;;;;;;;;;2081772;28;20164;-58
2022/07/16 04:18:46;;;;;;;3.78;3.47;;;;;;;;;;2081280;28;20180;-51
2022/07/16 04:19:46;;;;;;;4.20;3.85;;;;;;;;;;2081363;28;20227;-55
2022/07/16 04:20:47;;;;;;;3.75;3.45;;;;;;;;;;2077299;28;20252;-52
2022/07/16 04:21:47;;;;;;;6.97;3.65;;;;;;;;;;2082030;28;20279;-58
2022/07/16 04:22:48;;;;;;;3.75;3.45;;;;;;;;;;2081827;28;20161;-55
2022/07/16 04:23:48;;;;;;;3.80;3.50;;;;;;;;;;2081835;28;20208;-53
2022/07/16 04:24:48;;;;;;;3.97;3.33;;;;;;;;;;2080669;28;20180;-54
2022/07/16 04:25:49;;;;;;;3.20;3.00;;;;;;;;;;2072986;28;20195;-49
2022/07/16 04:26:49;;;;;;;3.80;3.42;;;;;;;;;;2072520;28;20224;-56
2022/07/16 04:27:49;;;;;;;4.68;3.65;;;;;;;;;;2072849;28;20221;-57
2022/07/16 04:28:50;;;;;;;4.18;2.97;;;;;;;;;;2065016;28;20174;-59
2022/07/16 04:29:50;;;;;;;3.75;3.45;;;;;;;;;;2075094;28;20211;-56
2022/07/16 04:30:51;;;;;;;4.03;3.67;;;;;;;;;;2074804;28;20173;-54
2022/07/16 04:31:51;;;;;;;5.50;3.75;;;;;;;;;;2066254;28;20641;-52
2022/07/16 04:32:52;;;;;;;4.95;3.88;;;;;;;;;;2057890;28;20749;-56
2022/07/16 04:33:52;;;;;;;3.78;3.45;;;;;;;;;;2064946;28;20252;-51
2022/07/16 04:34:52;;;;;;;5.45;3.90;;;;;;;;;;2073392;28;20180;-54
2022/07/16 04:35:53;;;;;;;3.80;3.50;;;;;;;;;;2074315;28;20221;-53
2022/07/16 04:36:54;;;;;;;4.13;3.70;;;;;;;;;;2066143;28;20802;-52
2022/07/16 04:37:54;;;;;;;3.88;3.58;;;;;;;;;;2074485;28;20700;-57
2022/07/16 04:38:54;;;;;;;6.13;3.78;;;;;;;;;;2082865;28;20169;-55
2022/07/16 04:39:55;;;;;;;4.40;4.10;;;;;;;;;;2074105;28;20203;-58
2022/07/16 04:40:55;;;;;;;4.57;4.20;;;;;;;;;;2074163;28;20595;-53
2022/07/16 04:41:56;;;;;;;4.20;3.80;;;;;;;;;;2082882;28;20287;-58
2022/07/16 04:42:56;;;;;;;5.47;4.50;;;;;;;;;;2082706;28;20656;-55
2022/07/16 04:43:56;;;;;;;8.63;4.55;;;;;;;;;;2073687;28;20208;-55
2022/07/16 04:44:57;;;;;;;4.68;4.28;;;;;;;;;;2073901;28;20164;-58
2022/07/16 04:45:57;;;;;;;6.30;4.82;;;;;;;;;;2082847;28;20295;-56
2022/07/16 04:46:58;;;;;;;4.80;3.83;;;;;;;;;;2083026;28;20209;-54
2022/07/16 04:47:58;;;;;;;4.55;4.15;;;;;;;;;;2082756;28;20597;-54
2022/07/16 04:48:59;;;;;;;4.35;3.95;;;;;;;;;;2082893;28;20497;-55
2022/07/16 04:49:59;;;;;;;5.68;4.45;;;;;;;;;;2082436;28;20179;-52
2022/07/16 04:50:59;;;;;;;5.18;4.38;;;;;;;;;;2082469;28;20184;-53
2022/07/16 04:52:00;;;;;;;7.63;4.47;;;;;;;;;;2082775;28;20246;-53
2022/07/16 04:53:00;;;;;;;4.90;4.32;;;;;;;;;;2082641;28;20183;-56
2022/07/16 04:54:00;;;;;;;4.97;4.35;;;;;;;;;;2073455;28;20196;-51
2022/07/16 04:55:02;;;;;;;4.60;4.20;;;;;;;;;;2074004;28;20196;-54
2022/07/16 04:56:02;;;;;;;4.80;4.40;;;;;;;;;;2074304;28;20168;-56
2022/07/16 04:57:02;;;;;;;7.25;4.50;;;;;;;;;;2082770;28;20164;-57
2022/07/16 04:58:03;;;;;;;5.05;4.55;;;;;;;;;;2073783;28;20215;-54
2022/07/16 04:59:03;;;;;;;6.80;4.70;;;;;;;;;;2073920;28;20177;-56
2022/07/16 05:00:05;;;;;;;4.97;4.53;;;;;;;;;;2082579;28;20180;-58
2022/07/16 05:01:05;;;;;;;5.50;4.40;;;;;;;;;;2082661;28;20584;-54
2022/07/16 05:03:24;;;;;;;5.50;5.00;;;;;;;;;;2082666;28;20172;-53
2022/07/16 05:04:25;;;;;;;4.75;4.45;;;;;;;;;;2081445;28;20302;-53
2022/07/16 05:05:26;;;;;;;4.97;4.55;;;;;;;;;;2082631;28;20617;-48
2022/07/16 05:06:27;;;;;;;4.60;4.30;;;;;;;;;;2082798;28;20687;-56
2022/07/16 05:07:27;;;;;;;4.95;4.63;;;;;;;;;;2082977;28;20187;-57
2022/07/16 05:08:28;;;;;;;5.30;4.90;;;;;;;;;;2082424;28;20165;-56
2022/07/16 05:09:28;;;;;;;4.93;4.53;;;;;;;;;;2082910;28;20207;-57
2022/07/16 05:10:29;;;;;;;5.50;5.00;;;;;;;;;;2073787;28;20670;-57
2022/07/16 05:11:30;;;;;;;5.10;4.70;;;;;;;;;;2074000;28;20693;-55
2022/07/16 05:12:30;;;;;;;5.38;4.88;;;;;;;;;;2074038;28;20177;-57
2022/07/16 05:13:31;;;;;;;5.55;5.15;;;;;;;;;;2074053;28;20169;-59
2022/07/16 05:14:31;;;;;;;5.35;4.95;;;;;;;;;;2081745;28;20180;-52
2022/07/16 05:15:31;;;;;;;5.75;5.10;;;;;;;;;;2082718;28;20181;-59
2022/07/16 05:16:32;;;;;;;5.78;5.28;;;;;;;;;;2082384;28;20671;-55
2022/07/16 05:17:32;;;;;;;6.03;4.68;;;;;;;;;;2082655;28;20188;-55
2022/07/16 05:18:32;;;;;;;4.97;4.68;;;;;;;;;;2082691;28;20172;-56
2022/07/16 05:19:33;;;;;;;6.25;5.60;;;;;;;;;;2082240;28;20176;-56
2022/07/16 05:20:33;;;;;;;4.97;4.68;;;;;;;;;;2082528;28;20226;-51
2022/07/16 05:21:34;;;;;;;5.05;4.60;;;;;;;;;;2081989;28;20692;-56
2022/07/16 05:22:34;;;;;;;5.30;4.90;;;;;;;;;;2082596;28;20180;-56
2022/07/16 05:23:35;;;;;;;5.00;4.68;;;;;;;;;;2082199;28;20172;-57
2022/07/16 05:24:36;;;;;;;5.15;4.65;;;;;;;;;;2072898;28;20618;-58
2022/07/16 05:25:36;;;;;;;4.90;4.50;;;;;;;;;;2073889;28;20225;-57
2022/07/16 05:26:36;;;;;;;5.35;4.93;;;;;;;;;;2082616;28;20642;-56
2022/07/16 05:27:37;;;;;;;6.05;5.55;;;;;;;;;;2073537;28;20693;-58
2022/07/16 05:28:38;;;;;;;5.35;4.57;;;;;;;;;;2073758;28;20634;-54
2022/07/16 05:29:38;;;;;;;5.15;4.75;;;;;;;;;;2073545;28;20208;-56
2022/07/16 05:30:38;;;;;;;5.65;5.18;;;;;;;;;;2073851;28;20169;-53
2022/07/16 05:31:39;;;;;;;6.00;4.50;;;;;;;;;;2082437;28;20283;-56
2022/07/16 05:32:40;;;;;;;4.85;4.32;;;;;;;;;;2082535;28;20218;-57
2022/07/16 05:33:40;;;;;;;4.78;4.38;;;;;;;;;;2081966;28;20180;-55
2022/07/16 05:34:41;;;;;;;7.22;5.13;;;;;;;;;;2081495;28;20252;-54
2022/07/16 05:35:41;;;;;;;4.05;3.70;;;;;;;;;;2081910;28;20180;-53
2022/07/16 05:36:42;;;;;;;4.63;4.22;;;;;;;;;;2073792;28;20681;-55
2022/07/16 05:37:43;;;;;;;4.70;4.28;;;;;;;;;;2073474;28;20761;-55
2022/07/16 05:38:43;;;;;;;5.43;4.53;;;;;;;;;;2082478;28;20226;-53
2022/07/16 05:39:44;;;;;;;5.95;4.47;;;;;;;;;;2082051;28;20219;-59
2022/07/16 05:40:44;;;;;;;4.50;4.15;;;;;;;;;;2081765;28;20171;-53
2022/07/16 05:41:45;;;;;;;3.97;3.47;;;;;;;;;;2082036;28;20235;-53
2022/07/16 05:42:45;;;;;;;4.60;4.22;;;;;;;;;;2073757;28;20872;-57
2022/07/16 05:43:45;;;;;;;4.22;3.92;;;;;;;;;;2073231;28;20216;-54
2022/07/16 05:44:46;;;;;;;4.28;3.97;;;;;;;;;;2072497;28;20177;-55
2022/07/16 05:45:46;;;;;;;4.00;3.70;;;;;;;;;;2082586;28;20164;-55
2022/07/16 05:46:47;;;;;;;3.70;3.40;;;;;;;;;;2082615;28;20732;-58
2022/07/16 05:47:47;;;;;;;4.82;3.90;;;;;;;;;;2082966;28;20223;-53
2022/07/16 05:48:47;;;;;;;4.70;3.67;;;;;;;;;;2073899;28;20176;-56
2022/07/16 05:49:48;;;;;;;5.68;4.10;;;;;;;;;;2059787;28;20166;-53
2022/07/16 05:50:49;;;;;;;3.45;3.15;;;;;;;;;;2057793;28;20174;-58
2022/07/16 05:51:49;;;;;;;6.05;4.07;;;;;;;;;;2077865;28;20680;-56
2022/07/16 05:52:50;;;;;;;4.20;3.75;;;;;;;;;;2082721;28;21821;-56
2022/07/16 05:53:50;;;;;;;3.78;3.47;;;;;;;;;;2084186;28;20172;-59
2022/07/16 05:54:51;;;;;;;3.72;3.33;;;;;;;;;;2067775;28;20266;-59
2022/07/16 05:55:51;;;;;;;4.63;4.15;;;;;;;;;;2066704;28;20177;-56
2022/07/16 05:56:51;;;;;;;3.88;3.53;;;;;;;;;;2083559;28;20168;-59
2022/07/16 05:57:52;;;;;;;3.47;3.17;;;;;;;;;;2083805;28;20195;-58
2022/07/16 05:58:52;;;;;;;4.03;3.80;;;;;;;;;;2076499;28;20266;-60
2022/07/16 05:59:52;;;;;;;4.82;3.63;;;;;;;;;;2079705;28;20195;-60
2022/07/16 06:00:53;;;;;;;4.28;3.67;;;;;;;;;;2083686;28;20172;-57
2022/07/16 06:01:53;;;;;;;5.57;3.58;;;;;;;;;;2082267;28;20688;-58
2022/07/16 06:02:54;;;;;;;3.42;3.00;;;;;;;;;;2081875;28;20169;-57
2022/07/16 06:03:54;;;;;;;3.67;3.38;;;;;;;;;;2081558;28;20172;-57
2022/07/16 06:04:55;;;;;;;4.03;3.70;;;;;;;;;;2075818;28;20167;-51
2022/07/16 06:05:55;;;;;;;4.20;3.60;;;;;;;;;;2082925;28;20226;-57
2022/07/16 06:06:56;;;;;;;3.90;3.22;;;;;;;;;;2082152;28;20168;-58
2022/07/16 06:07:56;;;;;;;3.75;3.45;;;;;;;;;;2073531;28;20669;-51